createdAt,value
2022-09-15T00:01:56.639Z,70.41
2022-09-15T00:04:23.184Z,70.31
2022-09-15T00:06:49.682Z,70.55
2022-09-15T00:09:16.170Z,70.27
2022-09-15T00:11:42.889Z,70.04
2022-09-15T00:14:09.670Z,70.06
2022-09-15T00:16:36.400Z,70.03
2022-09-15T00:19:03.119Z,70.24
2022-09-15T00:21:32.096Z,70.36
2022-09-15T00:23:58.976Z,70.28
2022-09-15T00:26:26.972Z,70.20
2022-09-15T00:28:53.555Z,70.27
2022-09-15T00:31:21.407Z,70.39
2022-09-15T00:33:48.829Z,70.37
2022-09-15T00:36:15.448Z,69.97
2022-09-15T00:38:42.094Z,70.28
2022-09-15T00:41:09.916Z,69.90
2022-09-15T00:43:49.782Z,69.97
2022-09-15T00:46:17.279Z,70.06
2022-09-15T00:49:14.247Z,70.01
2022-09-15T00:51:49.772Z,70.02
2022-09-15T00:54:25.689Z,69.93
2022-09-15T00:56:53.184Z,70.31
2022-09-15T00:59:23.249Z,70.03
2022-09-15T01:01:52.200Z,70.07
2022-09-15T01:04:18.731Z,70.02
2022-09-15T01:06:52.260Z,70.04
2022-09-15T01:09:24.736Z,70.21
2022-09-15T01:11:51.212Z,69.73
2022-09-15T01:14:17.710Z,70.34
2022-09-15T01:17:07.238Z,70.16
2022-09-15T01:19:55.628Z,69.73
2022-09-15T01:22:41.535Z,69.69
2022-09-15T01:25:35.230Z,70.13
2022-09-15T01:28:19.956Z,69.79
2022-09-15T01:30:51.946Z,69.69
2022-09-15T01:33:23.220Z,69.86
2022-09-15T01:35:58.747Z,70.09
2022-09-15T01:38:49.015Z,69.68
2022-09-15T01:41:19.467Z,70.20
2022-09-15T01:43:49.999Z,69.95
2022-09-15T01:46:19.412Z,70.18
2022-09-15T01:48:45.922Z,69.59
2022-09-15T01:51:12.401Z,69.61
2022-09-15T01:53:38.928Z,69.94
2022-09-15T01:56:09.997Z,70.03
2022-09-15T01:58:37.444Z,69.65
2022-09-15T02:01:14.144Z,70.16
2022-09-15T02:04:08.434Z,69.89
2022-09-15T02:06:39.639Z,69.57
2022-09-15T02:09:30.692Z,69.52
2022-09-15T02:12:07.597Z,69.78
2022-09-15T02:14:48.163Z,69.66
2022-09-15T02:17:16.654Z,69.99
2022-09-15T02:19:46.971Z,69.46
2022-09-15T02:22:27.922Z,70.09
2022-09-15T02:25:03.150Z,70.08
2022-09-15T02:27:31.699Z,70.16
2022-09-15T02:30:01.291Z,69.75
2022-09-15T02:32:28.027Z,69.93
2022-09-15T02:34:54.528Z,69.92
2022-09-15T02:37:21.440Z,69.89
2022-09-15T02:39:51.715Z,70.05
2022-09-15T02:42:29.026Z,70.05
2022-09-15T02:44:55.661Z,70.15
2022-09-15T02:47:22.401Z,69.72
2022-09-15T02:49:48.892Z,69.98
2022-09-15T02:52:15.445Z,69.90
2022-09-15T02:54:41.928Z,69.81
2022-09-15T02:57:09.189Z,69.52
2022-09-15T02:59:54.234Z,70.02
2022-09-15T03:02:20.848Z,69.48
2022-09-15T03:04:47.699Z,69.82
2022-09-15T03:07:14.445Z,69.66
2022-09-15T03:09:40.980Z,69.41
2022-09-15T03:12:07.576Z,69.42
2022-09-15T03:14:34.124Z,69.37
2022-09-15T03:17:00.648Z,69.38
2022-09-15T03:19:27.128Z,69.70
2022-09-15T03:21:53.633Z,69.48
2022-09-15T03:24:20.138Z,69.44
2022-09-15T03:26:46.912Z,69.83
2022-09-15T03:29:13.425Z,69.28
2022-09-15T03:31:39.949Z,69.55
2022-09-15T03:34:06.476Z,69.58
2022-09-15T03:36:32.962Z,69.24
2022-09-15T03:38:59.527Z,69.70
2022-09-15T03:41:26.282Z,69.51
2022-09-15T03:43:52.806Z,69.33
2022-09-15T03:46:19.391Z,69.23
2022-09-15T03:48:47.163Z,69.70
2022-09-15T03:51:13.860Z,69.16
2022-09-15T03:53:40.921Z,69.38
2022-09-15T03:56:08.523Z,69.62
2022-09-15T03:58:34.991Z,69.29
2022-09-15T04:01:01.519Z,69.44
2022-09-15T04:03:28.053Z,69.31
2022-09-15T04:05:54.535Z,69.51
2022-09-15T04:08:21.045Z,69.51
2022-09-15T04:10:48.178Z,69.43
2022-09-15T04:13:14.673Z,69.77
2022-09-15T04:15:41.134Z,69.41
2022-09-15T04:18:07.635Z,69.55
2022-09-15T04:20:34.116Z,69.45
2022-09-15T04:23:00.629Z,69.39
2022-09-15T04:25:27.863Z,69.53
2022-09-15T04:27:54.337Z,69.35
2022-09-15T04:30:20.922Z,69.67
2022-09-15T04:32:47.455Z,69.61
2022-09-15T04:35:14.008Z,69.37
2022-09-15T04:37:40.493Z,69.29
2022-09-15T04:40:08.109Z,69.87
2022-09-15T04:42:34.617Z,69.46
2022-09-15T04:45:01.165Z,69.61
2022-09-15T04:47:27.779Z,69.39
2022-09-15T04:49:54.321Z,69.40
2022-09-15T04:52:21.224Z,69.39
2022-09-15T04:54:47.724Z,69.21
2022-09-15T04:57:14.223Z,69.25
2022-09-15T04:59:40.716Z,69.81
2022-09-15T05:02:07.335Z,69.58
2022-09-15T05:04:34.880Z,69.42
2022-09-15T05:07:01.373Z,69.61
2022-09-15T05:09:29.543Z,69.85
2022-09-15T05:11:56.470Z,69.27
2022-09-15T05:14:23.131Z,69.65
2022-09-15T05:16:49.611Z,69.55
2022-09-15T05:19:16.104Z,69.35
2022-09-15T05:21:42.643Z,69.25
2022-09-15T05:24:09.170Z,69.66
2022-09-15T05:26:35.693Z,69.64
2022-09-15T05:29:02.223Z,69.63
2022-09-15T05:31:31.252Z,69.59
2022-09-15T05:33:59.995Z,69.34
2022-09-15T05:36:26.553Z,69.35
2022-09-15T05:38:53.455Z,69.33
2022-09-15T05:41:20.824Z,69.47
2022-09-15T05:43:47.558Z,69.16
2022-09-15T05:46:14.313Z,69.52
2022-09-15T05:48:40.814Z,69.04
2022-09-15T05:51:07.337Z,69.58
2022-09-15T05:53:34.878Z,69.09
2022-09-15T05:56:03.172Z,69.51
2022-09-15T05:58:30.511Z,69.18
2022-09-15T06:00:57.444Z,69.64
2022-09-15T06:03:28.630Z,69.21
2022-09-15T06:06:00.385Z,69.59
2022-09-15T06:08:34.584Z,69.34
2022-09-15T06:11:15.010Z,69.12
2022-09-15T06:13:41.640Z,69.65
2022-09-15T06:16:10.141Z,69.18
2022-09-15T06:18:37.535Z,69.34
2022-09-15T06:21:09.083Z,69.45
2022-09-15T06:23:35.912Z,69.13
2022-09-15T06:26:06.973Z,69.62
2022-09-15T06:28:33.807Z,69.62
2022-09-15T06:31:00.331Z,69.18
2022-09-15T06:33:27.597Z,69.16
2022-09-15T06:35:54.204Z,69.18
2022-09-15T06:38:20.702Z,69.29
2022-09-15T06:40:57.692Z,69.13
2022-09-15T06:43:24.499Z,69.09
2022-09-15T06:45:51.305Z,69.32
2022-09-15T06:48:24.398Z,69.03
2022-09-15T06:50:55.009Z,69.41
2022-09-15T06:53:21.798Z,69.13
2022-09-15T06:55:48.801Z,68.88
2022-09-15T06:58:15.576Z,69.31
2022-09-15T07:00:42.445Z,69.32
2022-09-15T07:03:09.059Z,69.11
2022-09-15T07:05:35.629Z,69.12
2022-09-15T07:08:02.387Z,69.02
2022-09-15T07:10:29.041Z,69.34
2022-09-15T07:12:55.762Z,69.42
2022-09-15T07:15:24.835Z,69.00
2022-09-15T07:17:51.331Z,69.38
2022-09-15T07:20:17.830Z,69.26
2022-09-15T07:22:44.301Z,69.46
2022-09-15T07:25:10.782Z,69.18
2022-09-15T07:27:37.299Z,68.91
2022-09-15T07:30:08.449Z,69.14
2022-09-15T07:32:34.956Z,69.14
2022-09-15T07:35:02.275Z,69.34
2022-09-15T07:37:28.806Z,69.23
2022-09-15T07:39:55.408Z,69.33
2022-09-15T07:42:21.958Z,69.19
2022-09-15T07:44:48.487Z,69.29
2022-09-15T07:47:14.963Z,68.92
2022-09-15T07:49:42.144Z,69.16
2022-09-15T07:52:08.779Z,69.12
2022-09-15T07:54:35.312Z,69.34
2022-09-15T07:57:01.968Z,68.89
2022-09-15T07:59:28.533Z,68.97
2022-09-15T08:01:55.189Z,68.81
2022-09-15T08:04:21.774Z,69.12
2022-09-15T08:06:48.272Z,69.31
2022-09-15T08:09:17.354Z,68.99
2022-09-15T08:11:44.068Z,69.17
2022-09-15T08:14:10.930Z,69.07
2022-09-15T08:16:44.808Z,69.34
2022-09-15T08:19:12.119Z,69.09
2022-09-15T08:21:38.628Z,69.09
2022-09-15T08:24:05.202Z,69.22
2022-09-15T08:26:31.728Z,68.77
2022-09-15T08:28:58.286Z,69.30
2022-09-15T08:31:24.855Z,68.93
2022-09-15T08:33:52.488Z,69.02
2022-09-15T08:36:19.124Z,68.81
2022-09-15T08:38:45.871Z,69.34
2022-09-15T08:41:17.428Z,69.21
2022-09-15T08:43:50.265Z,68.89
2022-09-15T08:46:19.838Z,68.73
2022-09-15T08:48:50.639Z,69.03
2022-09-15T08:51:23.604Z,69.11
2022-09-15T08:53:56.253Z,68.61
2022-09-15T08:56:22.812Z,69.00
2022-09-15T08:58:49.493Z,68.69
2022-09-15T09:01:37.834Z,69.10
2022-09-15T09:04:07.073Z,68.98
2022-09-15T09:06:52.436Z,68.64
2022-09-15T09:09:33.059Z,68.84
2022-09-15T09:12:32.260Z,68.85
2022-09-15T09:15:02.984Z,69.30
2022-09-15T09:17:47.661Z,68.94
2022-09-15T09:20:33.307Z,69.04
2022-09-15T09:23:01.245Z,68.67
2022-09-15T09:25:28.518Z,69.00
2022-09-15T09:27:56.751Z,68.98
2022-09-15T09:30:23.552Z,69.08
2022-09-15T09:32:56.092Z,68.63
2022-09-15T09:35:32.417Z,68.93
2022-09-15T09:37:59.990Z,69.14
2022-09-15T09:40:27.819Z,68.97
2022-09-15T09:42:54.320Z,68.69
2022-09-15T09:45:20.870Z,68.62
2022-09-15T09:47:47.415Z,68.69
2022-09-15T09:50:32.795Z,68.85
2022-09-15T09:52:59.684Z,69.14
2022-09-15T09:55:27.252Z,68.70
2022-09-15T09:57:54.171Z,69.10
2022-09-15T10:00:37.497Z,68.77
2022-09-15T10:03:33.002Z,68.65
2022-09-15T10:06:01.892Z,68.77
2022-09-15T10:08:28.410Z,68.62
2022-09-15T10:10:56.807Z,69.13
2022-09-15T10:13:23.439Z,68.83
2022-09-15T10:16:00.364Z,68.48
2022-09-15T10:18:31.947Z,68.76
2022-09-15T10:20:58.682Z,68.75
2022-09-15T10:23:27.192Z,68.84
2022-09-15T10:26:16.673Z,68.84
2022-09-15T10:28:43.517Z,68.45
2022-09-15T10:31:14.077Z,68.85
2022-09-15T10:33:50.476Z,68.85
2022-09-15T10:36:31.182Z,68.91
2022-09-15T10:39:11.978Z,68.89
2022-09-15T10:41:45.753Z,68.59
2022-09-15T10:44:24.199Z,69.01
2022-09-15T10:46:54.779Z,68.96
2022-09-15T10:49:55.739Z,68.76
2022-09-15T10:52:40.770Z,68.59
2022-09-15T10:55:52.336Z,69.00
2022-09-15T10:58:30.957Z,68.80
2022-09-15T11:01:02.799Z,68.78
2022-09-15T11:03:54.092Z,68.96
2022-09-15T11:06:30.037Z,68.51
2022-09-15T11:09:05.888Z,68.87
2022-09-15T11:11:35.366Z,68.92
2022-09-15T11:14:30.981Z,68.72
2022-09-15T11:17:19.712Z,68.63
2022-09-15T11:20:09.096Z,68.63
2022-09-15T11:22:49.804Z,69.04
2022-09-15T11:25:23.645Z,68.39
2022-09-15T11:27:54.088Z,68.60
2022-09-15T11:30:22.362Z,68.76
2022-09-15T11:33:10.301Z,68.95
2022-09-15T11:35:37.904Z,68.80
2022-09-15T11:38:25.711Z,68.92
2022-09-15T11:40:59.223Z,68.98
2022-09-15T11:43:42.447Z,68.88
2022-09-15T11:46:11.565Z,68.74
2022-09-15T11:48:47.350Z,68.78
2022-09-15T11:51:13.860Z,68.52
2022-09-15T11:54:10.717Z,68.56
2022-09-15T11:56:40.950Z,68.37
2022-09-15T11:59:16.517Z,68.56
2022-09-15T12:01:58.876Z,68.78
2022-09-15T12:05:00.561Z,68.40
2022-09-15T12:07:29.001Z,68.49
2022-09-15T12:09:55.911Z,68.40
2022-09-15T12:12:22.400Z,68.83
2022-09-15T12:14:49.340Z,68.38
2022-09-15T12:17:24.610Z,68.92
2022-09-15T12:20:06.201Z,68.60
2022-09-15T12:23:12.066Z,68.91
2022-09-15T12:25:45.912Z,68.81
2022-09-15T12:28:21.497Z,68.86
2022-09-15T12:30:48.205Z,68.71
2022-09-15T12:33:42.687Z,68.86
2022-09-15T12:36:35.373Z,68.62
2022-09-15T12:39:03.024Z,68.38
2022-09-15T12:41:29.507Z,68.80
2022-09-15T12:44:02.626Z,68.45
2022-09-15T12:46:29.120Z,68.62
2022-09-15T12:49:01.636Z,68.53
2022-09-15T12:51:28.869Z,68.45
2022-09-15T12:53:58.272Z,68.60
2022-09-15T12:56:29.278Z,68.35
2022-09-15T12:58:55.942Z,68.46
2022-09-15T13:01:22.340Z,68.38
2022-09-15T13:03:53.753Z,68.67
2022-09-15T13:06:34.168Z,68.67
2022-09-15T13:09:04.267Z,68.42
2022-09-15T13:11:34.677Z,68.58
2022-09-15T13:14:04.396Z,68.57
2022-09-15T13:16:48.159Z,68.78
2022-09-15T13:19:22.312Z,68.70
2022-09-15T13:22:05.072Z,68.50
2022-09-15T13:24:48.031Z,68.51
2022-09-15T13:27:38.322Z,68.61
2022-09-15T13:30:29.375Z,68.61
2022-09-15T13:32:56.124Z,68.76
2022-09-15T13:35:41.384Z,68.44
2022-09-15T13:38:31.440Z,68.70
2022-09-15T13:41:04.160Z,68.52
2022-09-15T13:43:40.652Z,68.40
2022-09-15T13:46:12.508Z,68.46
2022-09-15T13:49:36.101Z,68.55
2022-09-15T13:52:23.512Z,68.63
2022-09-15T13:55:14.584Z,68.31
2022-09-15T14:00:29.599Z,68.32
2022-09-15T14:03:25.833Z,68.63
2022-09-15T14:05:53.354Z,68.88
2022-09-15T14:08:27.961Z,68.77
2022-09-15T14:10:58.996Z,68.80
2022-09-15T14:13:26.617Z,68.71
2022-09-15T14:15:57.095Z,68.74
2022-09-15T14:18:23.568Z,68.30
2022-09-15T14:21:00.634Z,68.74
2022-09-15T14:23:27.126Z,68.45
2022-09-15T14:25:53.602Z,68.64
2022-09-15T14:28:27.303Z,68.37
2022-09-15T14:30:57.320Z,68.36
2022-09-15T14:33:23.803Z,68.22
2022-09-15T14:35:50.323Z,68.50
2022-09-15T14:38:24.112Z,68.68
2022-09-15T14:40:55.107Z,68.35
2022-09-15T14:43:31.952Z,68.81
2022-09-15T14:46:15.371Z,68.73
2022-09-15T14:48:41.984Z,68.46
2022-09-15T14:51:15.787Z,68.76
2022-09-15T14:53:42.352Z,68.42
2022-09-15T14:56:15.123Z,68.53
2022-09-15T14:58:44.484Z,68.73
2022-09-15T15:01:15.598Z,68.30
2022-09-15T15:03:56.088Z,68.19
2022-09-15T15:06:28.926Z,68.41
2022-09-15T15:09:27.509Z,68.17
2022-09-15T15:11:56.775Z,68.36
2022-09-15T15:17:02.562Z,68.59
2022-09-15T15:19:33.842Z,68.46
2022-09-15T15:22:15.664Z,68.28
2022-09-15T15:24:47.167Z,68.33
2022-09-15T15:27:25.944Z,68.67
2022-09-15T15:29:52.841Z,68.19
2022-09-15T15:32:22.812Z,68.37
2022-09-15T15:34:54.190Z,68.19
2022-09-15T15:37:31.498Z,68.58
2022-09-15T15:39:59.774Z,68.61
2022-09-15T15:42:26.600Z,68.78
2022-09-15T15:45:00.025Z,68.59
2022-09-15T15:47:31.863Z,68.48
2022-09-15T15:50:15.297Z,68.60
2022-09-15T15:52:42.346Z,68.33
2022-09-15T15:55:12.968Z,68.67
2022-09-15T15:57:39.602Z,68.68
2022-09-15T16:00:21.991Z,68.65
2022-09-15T16:02:49.478Z,68.58
2022-09-15T16:05:16.100Z,68.24
2022-09-15T16:07:42.858Z,68.19
2022-09-15T16:10:10.856Z,68.23
2022-09-15T16:12:37.413Z,68.67
2022-09-15T16:15:13.271Z,68.62
2022-09-15T16:17:44.342Z,68.10
2022-09-15T16:20:15.461Z,68.36
2022-09-15T16:22:42.401Z,68.63
2022-09-15T16:25:17.345Z,68.38
2022-09-15T16:27:43.825Z,68.33
2022-09-15T16:30:12.078Z,68.74
2022-09-15T16:32:39.704Z,68.15
2022-09-15T16:35:32.030Z,68.47
2022-09-15T16:37:58.534Z,68.23
2022-09-15T16:40:25.069Z,68.45
2022-09-15T16:42:51.643Z,68.18
2022-09-15T16:45:39.853Z,68.23
2022-09-15T16:48:07.902Z,68.60
2022-09-15T16:50:34.803Z,68.68
2022-09-15T16:53:01.346Z,68.62
2022-09-15T16:55:36.551Z,68.18
2022-09-15T16:58:03.957Z,68.24
2022-09-15T17:00:30.986Z,68.14
2022-09-15T17:02:57.595Z,68.60
2022-09-15T17:05:28.103Z,68.28
2022-09-15T17:07:54.616Z,68.65
2022-09-15T17:10:21.147Z,68.42
2022-09-15T17:12:47.631Z,68.69
2022-09-15T17:15:24.904Z,68.51
2022-09-15T17:17:51.506Z,68.04
2022-09-15T17:20:18.569Z,68.47
2022-09-15T17:22:46.342Z,68.56
2022-09-15T17:25:17.965Z,68.38
2022-09-15T17:27:44.459Z,68.45
2022-09-15T17:30:12.020Z,68.60
2022-09-15T17:32:38.728Z,68.33
2022-09-15T17:35:22.917Z,68.32
2022-09-15T17:37:49.921Z,68.37
2022-09-15T17:40:17.106Z,68.02
2022-09-15T17:42:43.801Z,68.14
2022-09-15T17:45:13.609Z,68.53
2022-09-15T17:47:40.084Z,68.46
2022-09-15T17:50:06.773Z,68.39
2022-09-15T17:52:33.660Z,68.43
2022-09-15T17:55:01.107Z,68.48
2022-09-15T17:57:27.642Z,68.43
2022-09-15T17:59:54.144Z,68.27
2022-09-15T18:02:21.403Z,68.27
2022-09-15T18:04:48.182Z,68.36
2022-09-15T18:07:14.675Z,68.35
2022-09-15T18:09:41.223Z,68.37
2022-09-15T18:12:09.304Z,68.29
2022-09-15T18:14:35.782Z,68.49
2022-09-15T18:17:02.327Z,68.15
2022-09-15T18:19:28.800Z,68.47
2022-09-15T18:21:55.528Z,68.50
2022-09-15T18:24:22.029Z,67.99
2022-09-15T18:26:48.590Z,68.37
2022-09-15T18:29:15.053Z,68.29
2022-09-15T18:31:41.554Z,68.20
2022-09-15T18:34:08.030Z,68.17
2022-09-15T18:36:34.567Z,68.10
2022-09-15T18:39:01.100Z,68.17
2022-09-15T18:41:27.975Z,68.07
2022-09-15T18:43:54.565Z,68.45
2022-09-15T18:46:21.242Z,68.60
2022-09-15T18:48:48.056Z,68.19
2022-09-15T18:51:23.630Z,68.29
2022-09-15T18:53:54.037Z,67.99
2022-09-15T18:56:20.993Z,68.02
2022-09-15T18:58:47.941Z,68.01
2022-09-15T19:01:17.856Z,68.11
2022-09-15T19:03:44.491Z,68.05
2022-09-15T19:06:11.024Z,68.37
2022-09-15T19:08:37.803Z,68.19
2022-09-15T19:11:04.298Z,68.28
2022-09-15T19:13:30.777Z,67.95
2022-09-15T19:16:03.094Z,68.39
2022-09-15T19:18:29.754Z,68.04
2022-09-15T19:21:04.142Z,68.38
2022-09-15T19:23:30.681Z,67.91
2022-09-15T19:25:57.148Z,68.35
2022-09-15T19:28:23.642Z,68.26
2022-09-15T19:30:50.181Z,68.27
2022-09-15T19:33:16.755Z,67.88
2022-09-15T19:35:43.281Z,68.27
2022-09-15T19:38:09.788Z,68.35
2022-09-15T19:40:36.274Z,68.17
2022-09-15T19:43:02.795Z,68.36
2022-09-15T19:45:29.304Z,67.94
2022-09-15T19:47:56.352Z,67.92
2022-09-15T19:50:23.288Z,68.31
2022-09-15T19:52:49.768Z,68.07
2022-09-15T19:55:18.088Z,68.15
2022-09-15T19:57:44.559Z,68.04
2022-09-15T20:00:12.558Z,67.98
2022-09-15T20:02:39.404Z,67.97
2022-09-15T20:05:06.670Z,68.08
2022-09-15T20:07:33.323Z,68.00
2022-09-15T20:09:59.846Z,68.21
2022-09-15T20:12:26.628Z,68.28
2022-09-15T20:14:53.156Z,68.30
2022-09-15T20:17:19.672Z,68.43
2022-09-15T20:19:46.135Z,67.85
2022-09-15T20:22:12.652Z,67.97
2022-09-15T20:24:39.989Z,67.77
2022-09-15T20:27:06.940Z,68.04
2022-09-15T20:29:33.468Z,68.41
2022-09-15T20:31:59.969Z,67.93
2022-09-15T20:34:26.435Z,68.29
2022-09-15T20:36:52.962Z,67.85
2022-09-15T20:39:22.111Z,68.21
2022-09-15T20:41:48.910Z,68.02
2022-09-15T20:44:15.536Z,68.33
2022-09-15T20:46:42.205Z,68.32
2022-09-15T20:49:09.316Z,68.34
2022-09-15T20:51:35.901Z,67.92
2022-09-15T20:54:03.685Z,68.23
2022-09-15T20:56:30.927Z,67.88
2022-09-15T20:58:58.539Z,68.30
2022-09-15T21:01:29.351Z,68.10
2022-09-15T21:03:55.915Z,68.03
2022-09-15T21:06:25.453Z,68.20
2022-09-15T21:08:52.987Z,68.16
2022-09-15T21:11:20.243Z,68.27
2022-09-15T21:13:47.135Z,68.21
2022-09-15T21:16:15.535Z,68.32
2022-09-15T21:18:42.944Z,67.79
2022-09-15T21:21:11.071Z,68.44
2022-09-15T21:23:41.461Z,67.89
2022-09-15T21:26:12.425Z,68.21
2022-09-15T21:28:38.972Z,68.26
2022-09-15T21:31:09.442Z,68.40
2022-09-15T21:33:36.346Z,68.28
2022-09-15T21:36:06.636Z,68.44
2022-09-15T21:38:34.446Z,68.35
2022-09-15T21:41:00.975Z,67.86
2022-09-15T21:43:31.616Z,68.37
2022-09-15T21:45:58.398Z,68.40
2022-09-15T21:48:27.188Z,68.12
2022-09-15T21:50:53.885Z,67.86
2022-09-15T21:53:20.997Z,68.19
2022-09-15T21:55:50.343Z,68.34
2022-09-15T21:58:19.090Z,67.89
2022-09-15T22:00:46.413Z,67.94
2022-09-15T22:03:13.036Z,67.94
2022-09-15T22:05:42.668Z,68.19
2022-09-15T22:08:10.452Z,67.93
2022-09-15T22:10:37.745Z,67.82
2022-09-15T22:13:04.922Z,68.13
2022-09-15T22:15:31.763Z,68.00
2022-09-15T22:17:58.304Z,68.03
2022-09-15T22:20:24.913Z,68.23
2022-09-15T22:22:51.432Z,68.09
2022-09-15T22:25:21.805Z,67.78
2022-09-15T22:27:48.619Z,68.25
2022-09-15T22:30:15.135Z,68.23
2022-09-15T22:32:41.611Z,67.89
2022-09-15T22:35:08.554Z,67.87
2022-09-15T22:37:35.120Z,67.89
2022-09-15T22:40:01.946Z,68.08
2022-09-15T22:42:28.530Z,67.90
2022-09-15T22:44:55.012Z,67.98
2022-09-15T22:47:21.634Z,67.99
2022-09-15T22:49:48.178Z,67.87
2022-09-15T22:52:14.651Z,67.78
2022-09-15T22:54:41.160Z,67.98
2022-09-15T22:57:07.821Z,68.33
2022-09-15T22:59:34.333Z,67.82
2022-09-15T23:02:00.886Z,67.97
2022-09-15T23:04:27.448Z,67.95
2022-09-15T23:06:53.930Z,67.95
2022-09-15T23:09:20.437Z,68.19
2022-09-15T23:11:46.981Z,68.19
2022-09-15T23:14:15.208Z,67.95
2022-09-15T23:16:42.841Z,67.90
2022-09-15T23:19:11.851Z,68.06
2022-09-15T23:21:38.347Z,68.02
2022-09-15T23:24:05.073Z,68.25
2022-09-15T23:26:31.895Z,68.20
2022-09-15T23:28:58.373Z,67.65
2022-09-15T23:31:24.981Z,67.87
2022-09-15T23:33:51.490Z,68.01
2022-09-15T23:36:21.830Z,68.08
2022-09-15T23:38:48.673Z,67.62
2022-09-15T23:41:15.362Z,68.24
2022-09-15T23:43:41.921Z,67.76
2022-09-15T23:46:08.549Z,67.75
2022-09-15T23:48:35.238Z,67.65
2022-09-15T23:51:02.004Z,68.00
2022-09-15T23:53:28.767Z,67.70
2022-09-15T23:55:55.315Z,68.15
2022-09-15T23:58:21.818Z,67.81
